createdAt,value
2017-12-16T00:01:00.612Z,998.42
2017-12-16T00:03:02.146Z,998.46
2017-12-16T00:05:04.256Z,998.46
2017-12-16T00:07:06.426Z,998.42
2017-12-16T00:09:08.421Z,998.43
2017-12-16T00:11:10.414Z,998.46
2017-12-16T00:13:12.088Z,998.44
2017-12-16T00:15:14.151Z,998.47
2017-12-16T00:17:15.855Z,998.46
2017-12-16T00:19:17.874Z,998.43
2017-12-16T00:21:19.528Z,998.42
2017-12-16T00:23:22.009Z,998.43
2017-12-16T00:25:23.804Z,998.49
2017-12-16T00:27:25.750Z,998.46
2017-12-16T00:29:27.228Z,998.49
2017-12-16T00:31:28.824Z,998.48
2017-12-16T00:33:30.248Z,998.47
2017-12-16T00:35:31.840Z,998.48
2017-12-16T00:37:33.443Z,998.52
2017-12-16T00:39:34.953Z,998.47
2017-12-16T00:41:36.631Z,998.48
2017-12-16T00:43:38.309Z,998.47
2017-12-16T00:45:40.376Z,998.46
2017-12-16T00:47:42.133Z,998.52
2017-12-16T00:49:44.120Z,998.49
2017-12-16T00:52:26.851Z,998.51
2017-12-16T00:54:28.241Z,998.48
2017-12-16T00:56:30.228Z,998.53
2017-12-16T00:58:31.652Z,998.53
2017-12-16T01:00:33.243Z,998.52
2017-12-16T01:02:34.784Z,998.56
2017-12-16T01:04:36.321Z,998.51
2017-12-16T01:06:37.758Z,998.53
2017-12-16T01:08:39.221Z,998.58
2017-12-16T01:10:41.120Z,998.62
2017-12-16T01:12:43.187Z,998.63
2017-12-16T01:14:44.700Z,998.65
2017-12-16T01:16:46.270Z,998.75
2017-12-16T01:18:48.116Z,998.74
2017-12-16T01:20:50.105Z,998.74
2017-12-16T01:22:52.008Z,998.81
2017-12-16T01:24:53.957Z,998.86
2017-12-16T01:26:55.986Z,998.86
2017-12-16T01:28:57.544Z,998.86
2017-12-16T01:30:59.201Z,998.91
2017-12-16T01:33:00.762Z,998.95
2017-12-16T01:35:02.380Z,998.97
2017-12-16T01:37:03.928Z,998.93
2017-12-16T01:39:05.627Z,999.01
2017-12-16T01:41:07.447Z,999.06
2017-12-16T01:43:09.149Z,999.10
2017-12-16T01:45:11.358Z,999.12
2017-12-16T01:47:13.098Z,999.17
2017-12-16T01:49:14.511Z,999.19
2017-12-16T01:51:16.085Z,999.20
2017-12-16T01:53:17.816Z,999.22
2017-12-16T01:55:19.306Z,999.26
2017-12-16T01:57:21.229Z,999.22
2017-12-16T01:59:23.365Z,999.23
2017-12-16T02:01:25.077Z,999.23
2017-12-16T02:03:26.613Z,999.27
2017-12-16T02:05:28.331Z,999.30
2017-12-16T02:07:30.461Z,999.30
2017-12-16T02:09:31.987Z,999.36
2017-12-16T02:11:33.534Z,999.41
2017-12-16T02:13:35.284Z,999.47
2017-12-16T02:15:37.264Z,999.56
2017-12-16T02:17:39.285Z,999.58
2017-12-16T02:19:41.223Z,999.55
2017-12-16T02:21:43.182Z,999.56
2017-12-16T02:23:44.700Z,999.51
2017-12-16T02:25:46.301Z,999.58
2017-12-16T02:27:48.036Z,999.60
2017-12-16T02:29:49.784Z,999.59
2017-12-16T02:31:51.724Z,999.62
2017-12-16T02:33:53.784Z,999.63
2017-12-16T02:35:55.820Z,999.63
2017-12-16T02:37:57.974Z,999.65
2017-12-16T02:39:59.707Z,999.70
2017-12-16T02:42:01.210Z,999.72
2017-12-16T02:44:02.713Z,999.79
2017-12-16T02:46:04.275Z,999.85
2017-12-16T02:48:05.854Z,999.84
2017-12-16T02:50:07.364Z,999.83
2017-12-16T02:52:09.079Z,999.80
2017-12-16T02:54:10.642Z,999.83
2017-12-16T02:56:12.119Z,999.88
2017-12-16T02:58:13.849Z,999.97
2017-12-16T03:00:15.391Z,999.97
2017-12-16T03:02:17.110Z,999.97
2017-12-16T03:04:18.878Z,999.96
2017-12-16T03:06:21.056Z,999.98
2017-12-16T03:08:23.188Z,1000.02
2017-12-16T03:10:24.728Z,1000.06
2017-12-16T03:12:26.411Z,1000.03
2017-12-16T03:14:28.505Z,1000.07
2017-12-16T03:16:29.982Z,1000.08
2017-12-16T03:18:31.501Z,1000.09
2017-12-16T03:20:33.031Z,1000.16
2017-12-16T03:22:34.541Z,1000.15
2017-12-16T03:24:36.115Z,1000.20
2017-12-16T03:26:37.642Z,1000.19
2017-12-16T03:28:39.124Z,1000.18
2017-12-16T03:30:40.654Z,1000.17
2017-12-16T03:32:42.200Z,1000.18
2017-12-16T03:35:23.831Z,1000.19
2017-12-16T03:37:25.845Z,1000.18
2017-12-16T03:39:27.612Z,1000.24
2017-12-16T03:41:29.127Z,1000.24
2017-12-16T03:43:30.606Z,1000.26
2017-12-16T03:45:32.190Z,1000.22
2017-12-16T03:47:34.033Z,1000.23
2017-12-16T03:49:36.237Z,1000.27
2017-12-16T03:51:37.764Z,1000.29
2017-12-16T03:53:39.315Z,1000.34
2017-12-16T03:55:40.836Z,1000.34
2017-12-16T03:57:42.489Z,1000.39
2017-12-16T03:59:44.112Z,1000.41
2017-12-16T04:01:45.713Z,1000.32
2017-12-16T04:03:47.192Z,1000.40
2017-12-16T04:05:48.774Z,1000.40
2017-12-16T04:07:50.486Z,1000.42
2017-12-16T04:09:52.530Z,1000.40
2017-12-16T04:11:54.057Z,1000.38
2017-12-16T04:14:37.041Z,1000.41
2017-12-16T04:16:38.555Z,1000.39
2017-12-16T04:18:40.466Z,1000.40
2017-12-16T04:20:41.826Z,1000.40
2017-12-16T04:22:43.530Z,1000.34
2017-12-16T04:24:45.495Z,1000.37
2017-12-16T04:26:47.620Z,1000.45
2017-12-16T04:28:49.706Z,1000.49
2017-12-16T04:30:51.286Z,1000.47
2017-12-16T04:32:52.880Z,1000.52
2017-12-16T04:35:36.084Z,1000.55
2017-12-16T04:37:38.163Z,1000.51
2017-12-16T04:39:39.866Z,1000.56
2017-12-16T04:41:42.214Z,1000.62
2017-12-16T04:43:43.801Z,1000.65
2017-12-16T04:45:45.273Z,1000.64
2017-12-16T04:47:46.846Z,1000.72
2017-12-16T04:49:48.528Z,1000.69
2017-12-16T04:51:50.031Z,1000.73
2017-12-16T04:53:51.522Z,1000.74
2017-12-16T04:55:53.420Z,1000.81
2017-12-16T04:57:55.824Z,1000.79
2017-12-16T04:59:57.693Z,1000.75
2017-12-16T05:01:59.863Z,1000.76
2017-12-16T05:04:01.774Z,1000.76
2017-12-16T05:06:03.720Z,1000.79
2017-12-16T05:08:05.610Z,1000.85
2017-12-16T05:10:07.182Z,1000.82
2017-12-16T05:12:09.529Z,1000.80
2017-12-16T05:14:11.038Z,1000.85
2017-12-16T05:16:12.731Z,1000.83
2017-12-16T05:18:14.419Z,1000.79
2017-12-16T05:20:17.543Z,1000.87
2017-12-16T05:22:19.659Z,1000.84
2017-12-16T05:24:22.528Z,1000.88
2017-12-16T05:26:24.177Z,1000.87
2017-12-16T05:28:25.813Z,1000.91
2017-12-16T05:30:27.514Z,1000.94
2017-12-16T05:32:29.599Z,1000.99
2017-12-16T05:34:31.377Z,1001.07
2017-12-16T05:37:13.748Z,1001.09
2017-12-16T05:39:17.192Z,1001.13
2017-12-16T05:41:18.561Z,1001.09
2017-12-16T05:43:19.980Z,1001.10
2017-12-16T05:45:22.554Z,1001.11
2017-12-16T05:47:23.961Z,1001.14
2017-12-16T05:49:25.368Z,1001.19
2017-12-16T05:51:26.803Z,1001.17
2017-12-16T05:53:28.212Z,1001.20
2017-12-16T05:55:29.696Z,1001.20
2017-12-16T05:57:31.125Z,1001.24
2017-12-16T05:59:33.325Z,1001.22
2017-12-16T06:01:35.469Z,1001.24
2017-12-16T06:03:37.078Z,1001.27
2017-12-16T06:05:38.997Z,1001.32
2017-12-16T06:07:40.652Z,1001.33
2017-12-16T06:09:43.340Z,1001.34
2017-12-16T06:11:45.114Z,1001.36
2017-12-16T06:13:46.655Z,1001.51
2017-12-16T06:15:48.154Z,1001.49
2017-12-16T06:17:49.630Z,1001.48
2017-12-16T06:19:51.353Z,1001.55
2017-12-16T06:21:52.852Z,1001.57
2017-12-16T06:23:54.285Z,1001.57
2017-12-16T06:25:55.699Z,1001.56
2017-12-16T06:27:57.309Z,1001.58
2017-12-16T06:29:59.289Z,1001.64
2017-12-16T06:32:00.995Z,1001.61
2017-12-16T06:34:02.461Z,1001.66
2017-12-16T06:36:03.978Z,1001.65
2017-12-16T06:38:05.449Z,1001.66
2017-12-16T06:40:07.039Z,1001.69
2017-12-16T06:42:08.472Z,1001.71
2017-12-16T06:44:10.817Z,1001.71
2017-12-16T06:46:12.704Z,1001.75
2017-12-16T06:48:15.096Z,1001.84
2017-12-16T06:50:17.295Z,1001.80
2017-12-16T06:52:18.900Z,1001.89
2017-12-16T06:54:20.687Z,1001.90
2017-12-16T06:56:22.462Z,1001.88
2017-12-16T06:58:23.965Z,1001.94
2017-12-16T07:00:25.496Z,1001.98
2017-12-16T07:02:27.795Z,1002.01
2017-12-16T07:04:29.445Z,1001.93
2017-12-16T07:06:30.949Z,1002.01
2017-12-16T07:08:33.321Z,1002.04
2017-12-16T07:10:35.076Z,1002.04
2017-12-16T07:12:36.817Z,1002.07
2017-12-16T07:14:38.501Z,1002.03
2017-12-16T07:16:40.172Z,1002.17
2017-12-16T07:18:41.851Z,1002.19
2017-12-16T07:20:43.692Z,1002.20
2017-12-16T07:22:45.418Z,1002.26
2017-12-16T07:24:46.893Z,1002.34
2017-12-16T07:26:49.011Z,1002.38
2017-12-16T07:28:51.861Z,1002.47
2017-12-16T07:30:53.490Z,1002.51
2017-12-16T07:32:54.962Z,1002.52
2017-12-16T07:34:56.429Z,1002.62
2017-12-16T07:36:58.813Z,1002.62
2017-12-16T07:39:00.947Z,1002.72
2017-12-16T07:41:02.649Z,1002.77
2017-12-16T07:43:04.357Z,1002.80
2017-12-16T07:45:05.851Z,1002.83
2017-12-16T07:47:07.300Z,1002.81
2017-12-16T07:49:09.553Z,1002.83
2017-12-16T07:51:11.760Z,1002.89
2017-12-16T07:53:14.097Z,1002.91
2017-12-16T07:55:15.830Z,1002.92
2017-12-16T07:57:18.175Z,1002.96
2017-12-16T07:59:19.860Z,1002.93
2017-12-16T08:01:21.515Z,1002.94
2017-12-16T08:03:23.271Z,1002.93
2017-12-16T08:05:25.057Z,1002.99
2017-12-16T08:07:26.707Z,1003.01
2017-12-16T08:09:28.459Z,1002.99
2017-12-16T08:11:29.855Z,1003.02
2017-12-16T08:13:31.454Z,1003.09
2017-12-16T08:15:33.678Z,1003.12
2017-12-16T08:17:35.134Z,1003.16
2017-12-16T08:19:36.588Z,1003.17
2017-12-16T08:21:38.048Z,1003.20
2017-12-16T08:23:39.492Z,1003.23
2017-12-16T08:25:40.986Z,1003.25
2017-12-16T08:27:42.488Z,1003.25
2017-12-16T08:29:43.952Z,1003.24
2017-12-16T08:31:45.661Z,1003.26
2017-12-16T08:33:47.399Z,1003.27
2017-12-16T08:35:48.939Z,1003.27
2017-12-16T08:37:50.373Z,1003.25
2017-12-16T08:39:52.275Z,1003.31
2017-12-16T08:41:53.983Z,1003.36
2017-12-16T08:43:55.422Z,1003.45
2017-12-16T08:45:56.843Z,1003.49
2017-12-16T08:47:58.277Z,1003.53
2017-12-16T08:49:59.779Z,1003.53
2017-12-16T08:52:01.169Z,1003.54
2017-12-16T08:54:02.905Z,1003.57
2017-12-16T08:56:04.390Z,1003.61
2017-12-16T08:58:05.811Z,1003.68
2017-12-16T09:00:07.222Z,1003.64
2017-12-16T09:02:08.647Z,1003.74
2017-12-16T09:04:10.099Z,1003.69
2017-12-16T09:06:11.512Z,1003.74
2017-12-16T09:08:13.020Z,1003.76
2017-12-16T09:10:14.425Z,1003.78
2017-12-16T09:12:15.839Z,1003.87
2017-12-16T09:14:17.255Z,1003.94
2017-12-16T09:16:18.672Z,1003.97
2017-12-16T09:18:20.086Z,1004.04
2017-12-16T09:20:21.495Z,1004.10
2017-12-16T09:22:22.910Z,1004.08
2017-12-16T09:24:24.400Z,1004.12
2017-12-16T09:26:25.787Z,1004.13
2017-12-16T09:28:27.209Z,1004.15
2017-12-16T09:30:28.630Z,1004.15
2017-12-16T09:32:30.037Z,1004.13
2017-12-16T09:34:31.469Z,1004.15
2017-12-16T09:36:32.870Z,1004.28
2017-12-16T09:38:34.283Z,1004.24
2017-12-16T09:40:35.738Z,1004.38
2017-12-16T09:42:37.168Z,1004.33
2017-12-16T09:44:38.714Z,1004.27
2017-12-16T09:46:40.148Z,1004.39
2017-12-16T09:48:41.635Z,1004.35
2017-12-16T09:50:43.104Z,1004.37
2017-12-16T09:52:44.502Z,1004.35
2017-12-16T09:54:45.918Z,1004.37
2017-12-16T09:56:47.341Z,1004.41
2017-12-16T09:58:48.816Z,1004.41
2017-12-16T10:00:50.331Z,1004.38
2017-12-16T10:02:51.771Z,1004.38
2017-12-16T10:04:53.227Z,1004.42
2017-12-16T10:06:54.793Z,1004.41
2017-12-16T10:08:56.283Z,1004.44
2017-12-16T10:10:57.731Z,1004.43
2017-12-16T10:12:59.225Z,1004.45
2017-12-16T10:15:00.686Z,1004.46
2017-12-16T10:17:02.141Z,1004.48
2017-12-16T10:19:03.555Z,1004.53
2017-12-16T10:21:05.006Z,1004.54
2017-12-16T10:23:06.441Z,1004.59
2017-12-16T10:25:07.858Z,1004.54
2017-12-16T10:27:09.271Z,1004.54
2017-12-16T10:29:10.731Z,1004.55
2017-12-16T10:31:12.153Z,1004.57
2017-12-16T10:33:14.328Z,1004.59
2017-12-16T10:35:15.786Z,1004.64
2017-12-16T10:37:17.196Z,1004.62
2017-12-16T10:39:18.614Z,1004.66
2017-12-16T10:41:20.025Z,1004.64
2017-12-16T10:43:21.472Z,1004.66
2017-12-16T10:45:22.878Z,1004.66
2017-12-16T10:47:24.303Z,1004.62
2017-12-16T10:49:25.728Z,1004.68
2017-12-16T10:51:27.143Z,1004.66
2017-12-16T10:53:29.023Z,1004.71
2017-12-16T10:55:30.260Z,1004.73
2017-12-16T10:57:31.811Z,1004.72
2017-12-16T10:59:33.557Z,1004.77
2017-12-16T11:01:35.018Z,1004.81
2017-12-16T11:03:36.627Z,1004.80
2017-12-16T11:05:38.098Z,1004.81
2017-12-16T11:07:39.566Z,1004.80
2017-12-16T11:09:41.023Z,1004.78
2017-12-16T11:11:42.501Z,1004.87
2017-12-16T11:13:44.008Z,1004.85
2017-12-16T11:15:45.519Z,1004.88
2017-12-16T11:17:47.053Z,1004.90
2017-12-16T11:19:48.560Z,1004.93
2017-12-16T11:21:50.239Z,1004.92
2017-12-16T11:23:51.681Z,1004.94
2017-12-16T11:25:53.095Z,1004.97
2017-12-16T11:27:54.532Z,1004.97
2017-12-16T11:29:55.949Z,1004.99
2017-12-16T11:31:57.368Z,1005.03
2017-12-16T11:33:58.844Z,1005.07
2017-12-16T11:36:00.448Z,1005.06
2017-12-16T11:38:01.890Z,1005.07
2017-12-16T11:40:03.374Z,1005.08
2017-12-16T11:42:04.787Z,1005.07
2017-12-16T11:44:06.201Z,1005.09
2017-12-16T11:46:07.616Z,1005.12
2017-12-16T11:48:09.019Z,1005.08
2017-12-16T11:50:10.440Z,1005.10
2017-12-16T11:52:11.867Z,1005.12
2017-12-16T11:54:13.295Z,1005.07
2017-12-16T11:56:14.726Z,1005.08
2017-12-16T11:58:16.123Z,1005.08
2017-12-16T12:00:17.535Z,1005.09
2017-12-16T12:02:18.959Z,1005.05
2017-12-16T12:04:20.371Z,1005.06
2017-12-16T12:06:21.859Z,1005.07
2017-12-16T12:08:23.418Z,1005.12
2017-12-16T12:10:24.786Z,1005.11
2017-12-16T12:12:26.196Z,1005.09
2017-12-16T12:14:27.606Z,1005.10
2017-12-16T12:16:29.036Z,1005.12
2017-12-16T12:18:30.462Z,1005.16
2017-12-16T12:20:31.862Z,1005.12
2017-12-16T12:22:33.293Z,1005.15
2017-12-16T12:24:34.702Z,1005.15
2017-12-16T12:26:36.204Z,1005.14
2017-12-16T12:28:37.619Z,1005.19
2017-12-16T12:30:39.027Z,1005.23
2017-12-16T12:32:40.442Z,1005.24
2017-12-16T12:34:41.860Z,1005.23
2017-12-16T12:36:43.271Z,1005.17
2017-12-16T12:38:44.680Z,1005.20
2017-12-16T12:40:46.088Z,1005.26
2017-12-16T12:42:47.505Z,1005.25
2017-12-16T12:44:48.920Z,1005.24
2017-12-16T12:46:50.325Z,1005.29
2017-12-16T12:48:51.741Z,1005.25
2017-12-16T12:50:53.153Z,1005.26
2017-12-16T12:52:54.603Z,1005.27
2017-12-16T12:54:56.032Z,1005.31
2017-12-16T12:56:57.478Z,1005.31
2017-12-16T12:58:58.987Z,1005.36
2017-12-16T13:01:00.430Z,1005.36
2017-12-16T13:03:01.906Z,1005.37
2017-12-16T13:05:03.332Z,1005.33
2017-12-16T13:07:04.747Z,1005.39
2017-12-16T13:09:06.158Z,1005.39
2017-12-16T13:11:07.571Z,1005.43
2017-12-16T13:13:08.991Z,1005.45
2017-12-16T13:15:10.690Z,1005.49
2017-12-16T13:17:12.129Z,1005.49
2017-12-16T13:19:13.551Z,1005.47
2017-12-16T13:21:15.016Z,1005.41
2017-12-16T13:23:16.487Z,1005.47
2017-12-16T13:25:17.920Z,1005.49
2017-12-16T13:27:19.365Z,1005.48
2017-12-16T13:29:20.799Z,1005.53
2017-12-16T13:31:22.275Z,1005.54
2017-12-16T13:33:23.833Z,1005.54
2017-12-16T13:35:25.616Z,1005.56
2017-12-16T13:37:27.104Z,1005.55
2017-12-16T13:39:28.559Z,1005.54
2017-12-16T13:41:30.074Z,1005.51
2017-12-16T13:43:31.487Z,1005.58
2017-12-16T13:45:32.893Z,1005.57
2017-12-16T13:47:34.400Z,1005.59
2017-12-16T13:49:36.057Z,1005.65
2017-12-16T13:51:37.564Z,1005.65
2017-12-16T13:53:38.971Z,1005.69
2017-12-16T13:55:40.380Z,1005.68
2017-12-16T13:57:41.811Z,1005.71
2017-12-16T13:59:43.297Z,1005.73
2017-12-16T14:01:44.755Z,1005.79
2017-12-16T14:03:46.477Z,1005.79
2017-12-16T14:05:48.230Z,1005.78
2017-12-16T14:07:49.812Z,1005.82
2017-12-16T14:09:51.305Z,1005.83
2017-12-16T14:11:52.754Z,1005.84
2017-12-16T14:13:54.174Z,1005.91
2017-12-16T14:15:55.577Z,1005.96
2017-12-16T14:17:56.995Z,1005.95
2017-12-16T14:19:58.474Z,1006.03
2017-12-16T14:21:59.860Z,1005.98
2017-12-16T14:24:01.274Z,1006.04
2017-12-16T14:26:02.773Z,1006.06
2017-12-16T14:28:04.154Z,1006.08
2017-12-16T14:30:05.572Z,1006.08
2017-12-16T14:32:07.103Z,1006.12
2017-12-16T14:34:08.560Z,1006.10
2017-12-16T14:36:10.025Z,1006.13
2017-12-16T14:38:11.490Z,1006.23
2017-12-16T14:40:12.895Z,1006.24
2017-12-16T14:42:14.309Z,1006.29
2017-12-16T14:44:15.717Z,1006.30
2017-12-16T14:46:17.125Z,1006.36
2017-12-16T14:48:18.550Z,1006.38
2017-12-16T14:50:19.965Z,1006.41
2017-12-16T14:52:21.386Z,1006.46
2017-12-16T14:54:22.797Z,1006.50
2017-12-16T14:56:24.215Z,1006.55
2017-12-16T14:58:25.617Z,1006.57
2017-12-16T15:00:27.031Z,1006.59
2017-12-16T15:02:28.454Z,1006.65
2017-12-16T15:04:30.060Z,1006.62
2017-12-16T15:06:31.465Z,1006.66
2017-12-16T15:08:32.878Z,1006.69
2017-12-16T15:10:34.297Z,1006.70
2017-12-16T15:12:35.724Z,1006.74
2017-12-16T15:14:37.188Z,1006.72
2017-12-16T15:16:38.688Z,1006.76
2017-12-16T15:18:40.110Z,1006.76
2017-12-16T15:20:41.581Z,1006.74
2017-12-16T15:22:43.054Z,1006.78
2017-12-16T15:24:44.687Z,1006.78
2017-12-16T15:26:46.341Z,1006.81
2017-12-16T15:28:47.702Z,1006.83
2017-12-16T15:30:49.116Z,1006.83
2017-12-16T15:32:50.530Z,1006.88
2017-12-16T15:34:52.018Z,1006.91
2017-12-16T15:36:53.685Z,1006.93
2017-12-16T15:38:55.188Z,1006.92
2017-12-16T15:40:56.773Z,1006.95
2017-12-16T15:42:58.566Z,1007.01
2017-12-16T15:45:00.263Z,1007.02
2017-12-16T15:47:01.727Z,1006.98
2017-12-16T15:49:03.202Z,1007.03
2017-12-16T15:51:04.707Z,1007.01
2017-12-16T15:53:06.429Z,1007.14
2017-12-16T15:55:08.375Z,1007.12
2017-12-16T15:57:09.854Z,1007.20
2017-12-16T15:59:11.320Z,1007.23
2017-12-16T16:01:12.890Z,1007.26
2017-12-16T16:03:14.332Z,1007.28
2017-12-16T16:05:15.979Z,1007.35
2017-12-16T16:07:17.597Z,1007.39
2017-12-16T16:09:19.046Z,1007.41
2017-12-16T16:11:21.316Z,1007.42
2017-12-16T16:13:21.946Z,1007.45
2017-12-16T16:15:23.356Z,1007.45
2017-12-16T16:17:25.518Z,1007.43
2017-12-16T16:19:26.959Z,1007.45
2017-12-16T16:21:28.370Z,1007.47
2017-12-16T16:23:29.782Z,1007.52
2017-12-16T16:25:31.198Z,1007.50
2017-12-16T16:27:32.625Z,1007.49
2017-12-16T16:29:34.047Z,1007.52
2017-12-16T16:31:35.991Z,1007.61
2017-12-16T16:33:37.414Z,1007.61
2017-12-16T16:35:40.039Z,1007.63
2017-12-16T16:37:41.857Z,1007.67
2017-12-16T16:39:44.069Z,1007.75
2017-12-16T16:41:45.518Z,1007.78
2017-12-16T16:43:47.012Z,1007.81
2017-12-16T16:45:48.424Z,1007.84
2017-12-16T16:47:49.900Z,1007.85
2017-12-16T16:49:51.335Z,1007.90
2017-12-16T16:51:53.004Z,1007.92
2017-12-16T16:53:54.430Z,1007.93
2017-12-16T16:55:56.045Z,1007.98
2017-12-16T16:57:57.533Z,1007.97
2017-12-16T16:59:59.029Z,1008.05
2017-12-16T17:02:00.707Z,1008.12
2017-12-16T17:04:02.192Z,1008.12
2017-12-16T17:06:03.955Z,1008.19
2017-12-16T17:08:05.472Z,1008.22
2017-12-16T17:10:07.769Z,1008.23
2017-12-16T17:12:09.622Z,1008.27
2017-12-16T17:14:11.170Z,1008.32
2017-12-16T17:16:12.784Z,1008.32
2017-12-16T17:18:15.334Z,1008.32
2017-12-16T17:20:16.814Z,1008.33
2017-12-16T17:22:18.282Z,1008.36
2017-12-16T17:24:19.722Z,1008.33
2017-12-16T17:26:22.006Z,1008.34
2017-12-16T17:28:23.423Z,1008.35
2017-12-16T17:30:25.017Z,1008.39
2017-12-16T17:32:26.649Z,1008.46
2017-12-16T17:34:28.148Z,1008.48
2017-12-16T17:36:29.595Z,1008.52
2017-12-16T17:38:31.102Z,1008.51
2017-12-16T17:40:32.591Z,1008.55
2017-12-16T17:42:34.321Z,1008.56
2017-12-16T17:44:36.016Z,1008.61
2017-12-16T17:46:37.602Z,1008.63
2017-12-16T17:48:39.035Z,1008.65
2017-12-16T17:50:40.450Z,1008.65
2017-12-16T17:52:41.873Z,1008.73
2017-12-16T17:54:43.429Z,1008.70
2017-12-16T17:56:45.125Z,1008.78
2017-12-16T17:58:46.523Z,1008.77
2017-12-16T18:00:47.995Z,1008.82
2017-12-16T18:02:49.609Z,1008.82
2017-12-16T18:04:51.331Z,1008.86
2017-12-16T18:06:53.200Z,1008.92
2017-12-16T18:08:54.821Z,1008.96
2017-12-16T18:10:56.643Z,1008.98
2017-12-16T18:12:58.447Z,1008.96
2017-12-16T18:15:00.119Z,1008.98
2017-12-16T18:17:01.813Z,1009.03
2017-12-16T18:19:03.564Z,1009.03
2017-12-16T18:21:05.242Z,1009.08
2017-12-16T18:23:07.101Z,1009.16
2017-12-16T18:25:08.817Z,1009.12
2017-12-16T18:27:10.460Z,1009.12
2017-12-16T18:29:11.939Z,1009.16
2017-12-16T18:31:13.455Z,1009.22
2017-12-16T18:33:14.942Z,1009.28
2017-12-16T18:35:16.419Z,1009.24
2017-12-16T18:37:18.044Z,1009.27
2017-12-16T18:39:19.762Z,1009.27
2017-12-16T18:41:21.452Z,1009.28
2017-12-16T18:43:23.207Z,1009.33
2017-12-16T18:45:25.020Z,1009.37
2017-12-16T18:47:26.664Z,1009.36
2017-12-16T18:49:28.424Z,1009.40
2017-12-16T18:51:30.040Z,1009.52
2017-12-16T18:53:31.790Z,1009.49
2017-12-16T18:55:33.301Z,1009.50
2017-12-16T18:57:34.914Z,1009.45
2017-12-16T18:59:36.531Z,1009.50
2017-12-16T19:01:38.262Z,1009.47
2017-12-16T19:03:39.912Z,1009.51
2017-12-16T19:05:41.418Z,1009.53
2017-12-16T19:07:43.047Z,1009.60
2017-12-16T19:09:44.938Z,1009.62
2017-12-16T19:11:46.428Z,1009.58
2017-12-16T19:13:47.939Z,1009.59
2017-12-16T19:15:49.454Z,1009.64
2017-12-16T19:17:50.936Z,1009.61
2017-12-16T19:19:52.469Z,1009.64
2017-12-16T19:21:54.008Z,1009.71
2017-12-16T19:23:55.528Z,1009.68
2017-12-16T19:25:57.020Z,1009.74
2017-12-16T19:27:58.725Z,1009.74
2017-12-16T19:30:01.047Z,1009.81
2017-12-16T19:32:02.868Z,1009.84
2017-12-16T19:34:04.326Z,1009.83
2017-12-16T19:36:05.785Z,1009.87
2017-12-16T19:38:07.326Z,1009.86
2017-12-16T19:40:08.987Z,1009.88
2017-12-16T19:42:10.449Z,1009.94
2017-12-16T19:44:12.083Z,1009.93
2017-12-16T19:46:13.570Z,1009.93
2017-12-16T19:48:15.194Z,1009.98
2017-12-16T19:50:16.758Z,1009.96
2017-12-16T19:52:18.472Z,1009.94
2017-12-16T19:54:20.142Z,1010.00
2017-12-16T19:56:21.572Z,1010.04
2017-12-16T19:58:23.245Z,1009.98
2017-12-16T20:00:25.156Z,1009.98
2017-12-16T20:02:26.976Z,1010.06
2017-12-16T20:04:28.870Z,1010.15
2017-12-16T20:06:30.552Z,1010.12
2017-12-16T20:08:32.268Z,1010.15
2017-12-16T20:10:33.943Z,1010.11
2017-12-16T20:12:35.631Z,1010.12
2017-12-16T20:14:37.350Z,1010.11
2017-12-16T20:16:39.264Z,1010.14
2017-12-16T20:18:40.829Z,1010.12
2017-12-16T20:20:42.331Z,1010.10
2017-12-16T20:22:44.021Z,1010.10
2017-12-16T20:24:45.667Z,1010.13
2017-12-16T20:26:47.173Z,1010.15
2017-12-16T20:28:48.657Z,1010.21
2017-12-16T20:30:50.158Z,1010.21
2017-12-16T20:32:51.645Z,1010.26
2017-12-16T20:34:53.085Z,1010.29
2017-12-16T20:36:54.819Z,1010.25
2017-12-16T20:38:56.688Z,1010.32
2017-12-16T20:40:58.313Z,1010.35
2017-12-16T20:43:00.177Z,1010.39
2017-12-16T20:45:01.640Z,1010.45
2017-12-16T20:47:03.380Z,1010.51
2017-12-16T20:49:04.933Z,1010.53
2017-12-16T20:51:07.324Z,1010.53
2017-12-16T20:53:08.119Z,1010.62
2017-12-16T20:55:09.619Z,1010.60
2017-12-16T20:57:11.976Z,1010.63
2017-12-16T20:59:13.912Z,1010.59
2017-12-16T21:01:15.619Z,1010.63
2017-12-16T21:03:17.381Z,1010.65
2017-12-16T21:05:19.689Z,1010.68
2017-12-16T21:07:21.418Z,1010.68
2017-12-16T21:09:23.109Z,1010.73
2017-12-16T21:11:25.027Z,1010.76
2017-12-16T21:13:27.377Z,1010.77
2017-12-16T21:15:29.267Z,1010.84
2017-12-16T21:17:30.999Z,1010.81
2017-12-16T21:19:32.546Z,1010.75
2017-12-16T21:21:34.051Z,1010.78
2017-12-16T21:23:35.773Z,1010.81
2017-12-16T21:25:37.338Z,1010.77
2017-12-16T21:27:39.049Z,1010.75
2017-12-16T21:29:41.609Z,1010.75
2017-12-16T21:31:43.208Z,1010.73
2017-12-16T21:33:44.739Z,1010.79
2017-12-16T21:35:46.165Z,1010.77
2017-12-16T21:37:47.641Z,1010.79
2017-12-16T21:39:49.100Z,1010.83
2017-12-16T21:41:50.600Z,1010.83
2017-12-16T21:43:52.965Z,1010.85
2017-12-16T21:45:54.443Z,1010.79
2017-12-16T21:47:55.967Z,1010.78
2017-12-16T21:49:57.654Z,1010.83
2017-12-16T21:51:59.264Z,1010.85
2017-12-16T21:54:00.778Z,1010.79
2017-12-16T21:56:02.246Z,1010.82
2017-12-16T21:58:03.757Z,1010.85
2017-12-16T22:00:05.248Z,1010.87
2017-12-16T22:02:06.722Z,1010.90
2017-12-16T22:04:08.159Z,1010.94
2017-12-16T22:06:09.566Z,1010.93
2017-12-16T22:08:10.977Z,1010.96
2017-12-16T22:10:12.379Z,1010.94
2017-12-16T22:12:13.840Z,1011.00
2017-12-16T22:14:15.359Z,1010.98
2017-12-16T22:16:16.880Z,1011.00
2017-12-16T22:18:18.363Z,1011.03
2017-12-16T22:20:19.771Z,1011.09
2017-12-16T22:22:21.335Z,1011.10
2017-12-16T22:24:22.833Z,1011.08
2017-12-16T22:26:24.312Z,1011.10
2017-12-16T22:28:25.807Z,1011.10
2017-12-16T22:30:27.339Z,1011.09
2017-12-16T22:32:28.757Z,1011.11
2017-12-16T22:34:30.606Z,1011.11
2017-12-16T22:36:32.158Z,1011.09
2017-12-16T22:38:33.613Z,1011.18
2017-12-16T22:40:35.101Z,1011.16
2017-12-16T22:42:36.647Z,1011.19
2017-12-16T22:44:38.201Z,1011.18
2017-12-16T22:47:20.836Z,1011.15
2017-12-16T22:49:22.634Z,1011.23
2017-12-16T22:51:24.074Z,1011.30
2017-12-16T22:53:25.661Z,1011.35
2017-12-16T22:55:27.102Z,1011.46
2017-12-16T22:57:28.502Z,1011.59
2017-12-16T22:59:29.920Z,1011.60
2017-12-16T23:01:31.607Z,1011.53
2017-12-16T23:03:33.198Z,1011.52
2017-12-16T23:06:16.449Z,1011.47
2017-12-16T23:08:17.852Z,1011.55
2017-12-16T23:10:19.256Z,1011.56
2017-12-16T23:12:20.835Z,1011.58
2017-12-16T23:14:22.631Z,1011.60
2017-12-16T23:16:24.204Z,1011.62
2017-12-16T23:18:25.600Z,1011.57
2017-12-16T23:20:27.000Z,1011.57
2017-12-16T23:22:28.401Z,1011.60
2017-12-16T23:24:30.231Z,1011.63
2017-12-16T23:27:12.810Z,1011.70
2017-12-16T23:29:14.215Z,1011.66
2017-12-16T23:31:15.620Z,1011.67
2017-12-16T23:33:17.553Z,1011.70
2017-12-16T23:35:18.927Z,1011.70
2017-12-16T23:37:20.329Z,1011.68
2017-12-16T23:39:21.764Z,1011.74
2017-12-16T23:41:23.201Z,1011.74
2017-12-16T23:43:24.716Z,1011.71
2017-12-16T23:45:26.207Z,1011.71
2017-12-16T23:47:27.707Z,1011.76
2017-12-16T23:49:29.223Z,1011.76
2017-12-16T23:51:30.703Z,1011.78
2017-12-16T23:53:32.610Z,1011.83
2017-12-16T23:55:34.246Z,1011.85
2017-12-16T23:57:36.063Z,1011.88
2017-12-16T23:59:37.629Z,1011.87
